Time;durP1;ratioP1;P1;durP2;ratioP2;P2;SDS_P1;SDS_P2;PMS_P1;PMS_P2;Temp;Humidity;BMP_temperature;BMP_pressure;BME280_temperature;BME280_humidity;BME280_pressure;Samples;Min_cycle;Max_cycle;Signal;HPM_P1;HPM_P2
2022/03/06 00:01:20;;;;;;;;;8.50;8.00;;;;;7.51;74.62;100588.59;5037553;28;45489;-73
2022/03/06 00:03:47;;;;;;;;;9.00;9.00;;;;;7.53;75.06;100603.41;5037001;28;45470;-72
2022/03/06 00:06:13;;;;;;;;;8.75;8.00;;;;;7.56;74.72;100597.47;5036821;28;45394;-72
2022/03/06 00:08:40;;;;;;;;;7.25;6.50;;;;;7.63;75.18;100611.63;5036877;28;45497;-73
2022/03/06 00:11:06;;;;;;;;;8.50;7.75;;;;;7.54;75.06;100596.50;5036853;28;45488;-72
2022/03/06 00:13:33;;;;;;;;;7.00;6.25;;;;;7.61;74.95;100605.47;5036763;28;45508;-72
2022/03/06 00:15:59;;;;;;;;;9.50;8.00;;;;;7.49;75.20;100580.72;5036524;28;45469;-72
2022/03/06 00:18:25;;;;;;;;;8.00;7.00;;;;;7.60;75.26;100602.00;5036669;28;45452;-73
2022/03/06 00:20:51;;;;;;;;;9.00;7.00;;;;;7.63;75.62;100609.91;5037089;28;45386;-72
2022/03/06 00:23:17;;;;;;;;;8.25;7.50;;;;;7.71;75.40;100618.03;5036998;28;45484;-73
2022/03/06 00:25:42;;;;;;;;;4.25;4.25;;;;;7.67;75.32;100617.00;5036487;28;45526;-72
2022/03/06 00:28:08;;;;;;;;;6.00;4.50;;;;;7.64;75.18;100603.91;5036378;28;45413;-72
2022/03/06 00:30:34;;;;;;;;;6.00;6.00;;;;;7.60;75.08;100590.69;5036713;28;45367;-72
2022/03/06 00:32:59;;;;;;;;;7.00;7.00;;;;;7.75;75.04;100622.53;5035568;28;45367;-73
2022/03/06 00:35:28;;;;;;;;;6.75;6.50;;;;;7.70;74.91;100609.34;5036861;28;45241;-72
2022/03/06 00:37:54;;;;;;;;;5.25;3.75;;;;;7.71;75.33;100605.03;5036804;28;45323;-72
2022/03/06 00:40:20;;;;;;;;;7.00;6.00;;;;;7.55;75.55;100582.69;5036226;28;45413;-72
2022/03/06 00:42:45;;;;;;;;;8.25;7.25;;;;;7.61;75.48;100590.75;5036608;28;45394;-73
2022/03/06 00:45:11;;;;;;;;;7.25;6.25;;;;;7.15;74.92;100516.00;5036618;28;46506;-72
2022/03/06 00:47:38;;;;;;;;;7.75;5.75;;;;;7.61;75.07;100605.47;5035158;28;45458;-72
2022/03/06 00:50:03;;;;;;;;;6.25;5.75;;;;;7.61;74.80;100608.06;5037363;28;45394;-72
2022/03/06 00:52:29;;;;;;;;;8.75;6.50;;;;;7.50;75.88;100605.00;5039956;28;45305;-72
2022/03/06 00:54:55;;;;;;;;;7.75;7.50;;;;;7.49;75.38;100591.13;5039860;28;46267;-73
2022/03/06 00:57:20;;;;;;;;;8.00;7.75;;;;;7.49;75.81;100595.44;5039793;28;45485;-72
2022/03/06 00:59:46;;;;;;;;;7.25;6.75;;;;;7.31;75.72;100559.13;5039907;28;45514;-72
2022/03/06 01:02:12;;;;;;;;;7.75;7.50;;;;;7.51;75.54;100586.88;5039985;28;45457;-72
2022/03/06 01:04:39;;;;;;;;;8.00;7.75;;;;;7.57;75.83;100601.84;5039419;28;46164;-72
2022/03/06 01:07:05;;;;;;;;;9.00;8.00;;;;;7.59;75.80;100605.41;5039498;28;45461;-72
2022/03/06 01:09:30;;;;;;;;;8.75;8.00;;;;;7.53;75.78;100590.41;5039339;28;45519;-72
2022/03/06 01:11:56;;;;;;;;;6.00;6.00;;;;;7.51;75.56;100591.19;5040166;28;45599;-73
2022/03/06 01:14:22;;;;;;;;;8.00;7.75;;;;;7.55;75.05;100595.69;5038122;28;45390;-72
2022/03/06 01:16:47;;;;;;;;;4.50;4.50;;;;;7.39;74.38;100575.94;5039529;28;45335;-72
2022/03/06 01:19:13;;;;;;;;;8.25;7.00;;;;;7.39;75.14;100583.75;5039545;28;45323;-72
2022/03/06 01:21:39;;;;;;;;;6.50;6.25;;;;;7.42;74.92;100588.19;5039747;28;45316;-72
2022/03/06 01:24:05;;;;;;;;;7.00;6.00;;;;;7.34;74.68;100577.44;5038849;28;45505;-72
2022/03/06 01:26:30;;;;;;;;;7.00;7.00;;;;;7.37;75.45;100580.19;5039219;28;45541;-72
2022/03/06 01:28:56;;;;;;;;;7.25;6.00;;;;;7.29;75.64;100564.25;5039552;28;45304;-72
2022/03/06 01:31:21;;;;;;;;;6.00;6.00;;;;;7.13;75.00;100530.66;5039454;28;45609;-72
2022/03/06 01:33:47;;;;;;;;;8.25;7.00;;;;;7.29;74.31;100556.47;5039161;28;45490;-72
2022/03/06 01:36:12;;;;;;;;;6.25;5.00;;;;;7.27;74.99;100563.31;5039111;28;45457;-73
2022/03/06 01:38:38;;;;;;;;;7.00;6.50;;;;;7.41;75.04;100587.28;5039146;28;45366;-73
2022/03/06 01:41:04;;;;;;;;;7.00;6.00;;;;;7.32;75.13;100560.91;5039406;28;45436;-72
2022/03/06 01:43:29;;;;;;;;;10.25;8.00;;;;;7.33;75.64;100562.69;5039225;28;45566;-72
2022/03/06 01:45:55;;;;;;;;;6.00;6.00;;;;;7.37;75.66;100569.78;5039342;28;45450;-72
2022/03/06 01:48:20;;;;;;;;;7.00;7.00;;;;;7.46;75.54;100582.28;5038979;28;45315;-73
2022/03/06 01:50:46;;;;;;;;;7.75;6.00;;;;;7.32;74.90;100559.22;5039303;28;45506;-72
2022/03/06 01:53:12;;;;;;;;;7.00;6.25;;;;;7.39;75.16;100582.88;5038920;28;45463;-72
2022/03/06 01:55:39;;;;;;;;;4.00;4.00;;;;;7.44;75.19;100579.66;5038845;28;45468;-73
2022/03/06 01:58:08;;;;;;;;;7.50;6.75;;;;;7.36;75.31;100565.41;5038844;28;45362;-72
2022/03/06 02:00:39;;;;;;;;;7.00;6.00;;;;;7.31;75.28;100560.03;5038734;28;45314;-72
2022/03/06 02:03:06;;;;;;;;;8.00;6.00;;;;;7.36;75.45;100562.81;5037952;28;45331;-73
2022/03/06 02:05:31;;;;;;;;;6.00;6.00;;;;;7.28;75.46;100554.72;5038602;28;45338;-72
2022/03/06 02:07:57;;;;;;;;;4.00;4.00;;;;;7.41;75.38;100570.81;5039012;28;45525;-72
2022/03/06 02:10:23;;;;;;;;;6.75;6.75;;;;;7.40;75.07;100567.34;5038897;28;45307;-72
2022/03/06 02:12:49;;;;;;;;;6.50;4.00;;;;;7.42;74.81;100567.38;5038495;28;45500;-72
2022/03/06 02:15:16;;;;;;;;;6.00;4.50;;;;;7.42;74.59;100567.38;5038478;28;45407;-72
2022/03/06 02:17:42;;;;;;;;;7.00;7.00;;;;;7.46;74.91;100582.28;5038841;28;45323;-72
2022/03/06 02:20:18;;;;;;;;;4.00;4.00;;;;;7.45;74.30;100581.41;5038675;28;45488;-72
2022/03/06 02:22:46;;;;;;;;;4.00;4.00;;;;;7.41;74.42;100569.09;5038392;28;45309;-72
2022/03/06 02:25:21;;;;;;;;;4.00;4.00;;;;;7.39;74.12;100559.47;5038548;28;45863;-72
2022/03/06 02:27:47;;;;;;;;;4.00;4.00;;;;;7.37;73.88;100559.41;5038306;28;45279;-72
2022/03/06 02:30:17;;;;;;;;;4.50;4.50;;;;;7.42;73.64;100565.69;5038554;28;45312;-72
2022/03/06 02:32:45;;;;;;;;;4.00;4.00;;;;;7.41;74.06;100565.63;5038270;28;45502;-72
2022/03/06 02:35:11;;;;;;;;;7.25;6.75;;;;;7.41;74.18;100560.44;5036667;28;45655;-72
2022/03/06 02:37:37;;;;;;;;;6.25;5.50;;;;;7.36;74.69;100553.31;5038058;28;45340;-72
2022/03/06 02:40:05;;;;;;;;;7.00;7.00;;;;;7.41;74.52;100560.44;5038544;28;45457;-72
2022/03/06 02:42:33;;;;;;;;;6.75;4.25;;;;;7.41;74.35;100563.03;5038368;28;45505;-72
2022/03/06 02:45:00;;;;;;;;;8.00;7.25;;;;;7.17;74.83;100516.97;5038181;28;45240;-72
2022/03/06 02:47:27;;;;;;;;;8.00;5.75;;;;;7.28;74.85;100552.13;5038117;28;45538;-72
2022/03/06 02:49:53;;;;;;;;;6.00;5.50;;;;;7.30;74.87;100557.34;5036794;28;45633;-72
2022/03/06 02:52:19;;;;;;;;;8.50;7.75;;;;;7.16;75.14;100529.09;5037848;28;45525;-73
2022/03/06 02:54:45;;;;;;;;;7.00;4.50;;;;;7.20;75.14;100540.47;5038011;28;45458;-72
2022/03/06 02:57:12;;;;;;;;;6.75;4.00;;;;;7.22;74.89;100544.06;5038013;28;45339;-72
2022/03/06 02:59:37;;;;;;;;;5.00;4.50;;;;;7.04;74.69;100510.34;5038155;28;45398;-73
2022/03/06 03:02:04;;;;;;;;;5.00;4.00;;;;;7.13;74.65;100528.06;5039586;28;46115;-73
2022/03/06 03:04:31;;;;;;;;;5.50;5.50;;;;;7.21;74.53;100537.06;5040292;28;45430;-73
2022/03/06 03:06:57;;;;;;;;;5.50;4.50;;;;;7.18;73.83;100523.94;5039515;28;45478;-72
2022/03/06 03:09:24;;;;;;;;;4.00;4.00;;;;;7.18;74.44;100529.13;5039791;28;45299;-73
2022/03/06 03:11:50;;;;;;;;;4.50;4.50;;;;;7.16;73.74;100521.28;5039040;28;46550;-73
2022/03/06 03:14:17;;;;;;;;;6.50;4.00;;;;;7.22;73.26;100524.94;5037429;28;45453;-73
2022/03/06 03:16:43;;;;;;;;;6.25;4.00;;;;;7.25;73.23;100523.38;5038128;28;45323;-73
2022/03/06 03:19:09;;;;;;;;;5.00;3.25;;;;;7.23;73.41;100519.84;5039550;28;45374;-72
2022/03/06 03:21:34;;;;;;;;;5.50;4.50;;;;;7.18;73.19;100513.53;5039613;28;45405;-73
2022/03/06 03:24:00;;;;;;;;;4.00;4.00;;;;;7.23;73.70;100519.84;5039406;28;45335;-74
2022/03/06 03:26:26;;;;;;;;;6.00;6.00;;;;;7.21;73.27;100521.47;5038431;28;45451;-73
2022/03/06 03:28:52;;;;;;;;;6.25;5.00;;;;;7.24;74.07;100525.91;5037700;28;45333;-73
2022/03/06 03:31:18;;;;;;;;;3.75;3.25;;;;;7.07;74.75;100500.09;5037284;28;45385;-72
2022/03/06 03:33:44;;;;;;;;;3.00;3.00;;;;;7.11;74.76;100503.72;5037250;28;45402;-72
2022/03/06 03:36:09;;;;;;;;;3.50;3.00;;;;;7.11;74.15;100509.78;5035867;28;45538;-72
2022/03/06 03:38:35;;;;;;;;;7.75;6.00;;;;;7.06;73.46;100494.81;5036283;28;45480;-73
2022/03/06 03:41:01;;;;;;;;;6.00;4.50;;;;;7.14;73.42;100519.41;5037132;28;45459;-72
2022/03/06 03:43:28;;;;;;;;;6.50;4.00;;;;;7.21;74.13;100521.47;5035746;28;45302;-72
2022/03/06 03:45:54;;;;;;;;;5.00;3.50;;;;;7.15;73.96;100523.81;5037060;28;45526;-72
2022/03/06 03:48:20;;;;;;;;;6.00;4.00;;;;;7.09;74.08;100507.97;5037268;28;45197;-72
2022/03/06 03:50:45;;;;;;;;;6.25;6.00;;;;;7.03;74.36;100503.38;5037076;28;45405;-72
2022/03/06 03:53:11;;;;;;;;;6.00;4.00;;;;;7.10;74.18;100521.03;5037013;28;45508;-74
2022/03/06 03:55:37;;;;;;;;;4.00;3.50;;;;;7.07;73.98;100518.28;5037526;28;45509;-74
2022/03/06 03:58:02;;;;;;;;;6.50;4.00;;;;;7.10;74.42;100538.28;5037729;28;45243;-75
2022/03/06 04:00:28;;;;;;;;;4.00;2.00;;;;;7.10;73.84;100534.00;5036955;28;45521;-74
2022/03/06 04:02:53;;;;;;;;;5.50;3.50;;;;;7.03;73.39;100513.78;5037104;28;45213;-74
2022/03/06 04:05:19;;;;;;;;;6.00;3.00;;;;;6.95;72.43;100500.44;5037913;28;45494;-74
2022/03/06 04:07:45;;;;;;;;;5.00;3.50;;;;;6.96;73.07;100497.03;5037729;28;45481;-72
2022/03/06 04:10:11;;;;;;;;;5.50;4.00;;;;;7.10;73.93;100525.31;5036682;28;46275;-72
2022/03/06 04:12:36;;;;;;;;;6.00;3.00;;;;;7.01;72.99;100506.75;5037228;28;45440;-72
2022/03/06 04:15:03;;;;;;;;;3.75;3.00;;;;;7.05;73.56;100517.31;5036833;28;45377;-73
2022/03/06 04:17:28;;;;;;;;;3.00;3.00;;;;;7.07;72.89;100513.09;5037184;28;45431;-72
2022/03/06 04:19:54;;;;;;;;;3.75;3.75;;;;;7.03;72.95;100505.09;5036559;28;45507;-72
2022/03/06 04:22:19;;;;;;;;;4.00;4.00;;;;;6.95;72.73;100496.97;5035355;28;45490;-72
2022/03/06 04:24:45;;;;;;;;;3.25;2.25;;;;;7.04;72.68;100504.25;5037237;28;45241;-72
2022/03/06 04:27:10;;;;;;;;;5.50;4.00;;;;;7.06;73.09;100508.72;5040432;28;45423;-72
2022/03/06 04:29:36;;;;;;;;;4.00;3.00;;;;;6.97;72.70;100495.34;5040209;28;45387;-72
2022/03/06 04:32:03;;;;;;;;;2.75;2.75;;;;;7.01;73.44;100509.34;5040156;28;45306;-72
2022/03/06 04:34:28;;;;;;;;;6.25;4.00;;;;;7.02;73.08;100503.31;5040315;28;45224;-72
2022/03/06 04:36:54;;;;;;;;;4.00;4.00;;;;;7.06;74.15;100508.72;5040274;28;45381;-74
2022/03/06 04:39:19;;;;;;;;;6.00;3.50;;;;;7.06;74.03;100505.22;5039825;28;45481;-74
2022/03/06 04:41:45;;;;;;;;;6.00;3.75;;;;;7.07;73.28;100518.28;5038549;28;45500;-74
2022/03/06 04:44:12;;;;;;;;;6.00;4.00;;;;;6.84;73.12;100475.72;5039962;28;45396;-74
2022/03/06 04:46:38;;;;;;;;;6.00;4.50;;;;;7.06;73.77;100516.53;5040357;28;45465;-74
2022/03/06 04:49:03;;;;;;;;;3.50;3.00;;;;;6.87;73.63;100485.38;5039523;28;45442;-74
2022/03/06 04:51:29;;;;;;;;;3.00;3.00;;;;;6.97;73.09;100503.13;5039830;28;45521;-74
2022/03/06 04:53:55;;;;;;;;;3.25;3.25;;;;;6.84;73.45;100487.81;5040033;28;45519;-72
2022/03/06 04:56:20;;;;;;;;;3.00;3.00;;;;;6.83;73.29;100491.25;5040159;28;45351;-72
2022/03/06 04:58:46;;;;;;;;;3.75;3.00;;;;;6.95;73.16;100518.63;5039986;28;46267;-72
2022/03/06 05:01:11;;;;;;;;;4.50;4.00;;;;;6.99;73.04;100513.59;5039817;28;45265;-72
2022/03/06 05:03:37;;;;;;;;;4.00;3.00;;;;;7.02;71.94;100527.56;5040028;28;45264;-72
2022/03/06 05:06:03;;;;;;;;;4.00;3.25;;;;;6.90;71.32;100501.06;5039751;28;45387;-72
2022/03/06 05:08:28;;;;;;;;;4.50;2.75;;;;;6.99;72.09;100521.38;5039309;28;46149;-72
2022/03/06 05:10:55;;;;;;;;;4.00;3.50;;;;;6.93;72.79;100514.19;5039400;28;45418;-72
2022/03/06 05:13:22;;;;;;;;;4.00;3.00;;;;;6.85;73.33;100510.38;5039595;28;45292;-72
2022/03/06 05:15:48;;;;;;;;;4.00;3.50;;;;;6.90;72.30;100517.56;5039604;28;45457;-72
2022/03/06 05:18:14;;;;;;;;;3.00;3.00;;;;;6.86;71.90;100520.81;5039057;28;46148;-72
2022/03/06 05:20:39;;;;;;;;;3.25;3.25;;;;;6.90;73.06;100534.81;5039637;28;45657;-72
2022/03/06 05:23:05;;;;;;;;;3.50;3.00;;;;;6.74;72.91;100507.28;5039269;28;45474;-74
2022/03/06 05:25:31;;;;;;;;;6.50;5.00;;;;;6.84;72.77;100529.34;5039625;28;45446;-74
2022/03/06 05:27:56;;;;;;;;;4.00;3.50;;;;;6.76;72.66;100510.84;5038882;28;46435;-74
2022/03/06 05:30:22;;;;;;;;;4.00;3.50;;;;;6.81;73.23;100530.13;5039382;28;45417;-74
2022/03/06 05:32:48;;;;;;;;;5.50;4.00;;;;;6.76;73.09;100524.72;5039335;28;45426;-74
2022/03/06 05:35:14;;;;;;;;;5.50;4.00;;;;;6.79;72.45;100523.09;5039632;28;45447;-74
2022/03/06 05:37:40;;;;;;;;;3.00;3.00;;;;;6.76;71.68;100519.53;5038144;28;46030;-72
2022/03/06 05:40:07;;;;;;;;;7.00;6.00;;;;;6.80;72.33;100523.13;5037696;28;45606;-72
2022/03/06 05:42:33;;;;;;;;;6.00;5.00;;;;;6.81;72.43;100524.94;5039293;28;45491;-72
2022/03/06 05:44:59;;;;;;;;;3.00;3.00;;;;;6.77;72.77;100510.91;5039183;28;45366;-72
2022/03/06 05:47:24;;;;;;;;;3.75;3.25;;;;;6.79;72.90;100521.38;5038878;28;45521;-72
2022/03/06 05:49:50;;;;;;;;;3.00;2.00;;;;;6.73;71.79;100508.13;5039014;28;45262;-72
2022/03/06 05:52:16;;;;;;;;;2.75;2.75;;;;;6.76;71.40;100509.16;5039071;28;45172;-72
2022/03/06 05:54:42;;;;;;;;;2.50;2.00;;;;;6.78;71.81;100509.19;5039604;28;45385;-72
2022/03/06 05:57:08;;;;;;;;;2.00;2.00;;;;;6.76;72.10;100505.66;5038700;28;45457;-72
2022/03/06 05:59:33;;;;;;;;;2.25;2.00;;;;;6.80;72.29;100524.84;5038653;28;45446;-72
2022/03/06 06:01:59;;;;;;;;;2.00;2.00;;;;;6.59;72.16;100478.94;5038965;28;45746;-72
2022/03/06 06:04:25;;;;;;;;;6.00;3.25;;;;;6.72;71.24;100506.31;5039234;28;45915;-72
2022/03/06 06:06:51;;;;;;;;;6.00;3.00;;;;;6.75;70.49;100509.06;5038755;28;45426;-72
2022/03/06 06:09:16;;;;;;;;;5.00;3.75;;;;;6.69;70.06;100503.63;5038668;28;45389;-72
2022/03/06 06:11:42;;;;;;;;;4.25;3.00;;;;;6.52;70.68;100482.06;5039043;28;45394;-72
2022/03/06 06:14:07;;;;;;;;;3.25;2.00;;;;;6.61;70.96;100494.59;5038863;28;45449;-72
2022/03/06 06:16:33;;;;;;;;;3.00;2.50;;;;;6.44;71.37;100478.25;5037276;28;47237;-72
2022/03/06 06:18:59;;;;;;;;;2.00;2.00;;;;;6.53;70.75;100487.34;5038558;28;45497;-73
2022/03/06 06:21:25;;;;;;;;;2.00;2.00;;;;;6.53;70.24;100487.34;5038736;28;45493;-72
2022/03/06 06:23:50;;;;;;;;;3.25;2.50;;;;;6.62;70.84;100507.63;5038730;28;45291;-72
2022/03/06 06:26:17;;;;;;;;;4.00;3.50;;;;;6.61;70.97;100513.66;5037903;28;45948;-73
2022/03/06 06:28:43;;;;;;;;;31.00;29.50;;;;;6.62;70.96;100511.94;5038636;28;45415;-72
2022/03/06 06:31:09;;;;;;;;;23.25;23.00;;;;;6.53;71.43;100508.09;5038203;28;45352;-72
2022/03/06 06:33:35;;;;;;;;;3.00;2.00;;;;;6.60;72.61;100513.56;5038625;28;45298;-72
2022/03/06 06:36:02;;;;;;;;;2.00;2.00;;;;;6.34;72.10;100476.94;5038137;28;45760;-72
2022/03/06 06:38:28;;;;;;;;;3.00;3.00;;;;;6.35;72.18;100481.31;5038148;28;45443;-72
2022/03/06 06:40:54;;;;;;;;;2.00;1.75;;;;;6.50;71.96;100510.53;5038296;28;45367;-72
2022/03/06 06:43:20;;;;;;;;;2.75;2.75;;;;;6.47;72.91;100515.63;5038450;28;45517;-72
2022/03/06 06:45:45;;;;;;;;;2.75;2.75;;;;;6.48;72.66;100508.72;5038410;28;46211;-72
2022/03/06 06:48:11;;;;;;;;;2.50;2.50;;;;;6.35;72.03;100489.09;5037664;28;45430;-72
2022/03/06 06:50:37;;;;;;;;;4.25;3.00;;;;;6.42;72.12;100500.66;5037945;28;45478;-72
2022/03/06 06:53:02;;;;;;;;;2.50;2.50;;;;;6.43;71.38;100512.81;5038377;28;45274;-72
2022/03/06 06:55:28;;;;;;;;;3.75;3.75;;;;;6.43;71.12;100511.09;5037864;28;45446;-72
2022/03/06 06:57:53;;;;;;;;;48.75;39.75;;;;;6.21;70.84;100469.41;5038278;28;45291;-74
2022/03/06 07:00:19;;;;;;;;;70.25;54.50;;;;;6.46;71.17;100505.16;5038047;28;45233;-74
2022/03/06 07:02:46;;;;;;;;;25.50;22.50;;;;;6.59;71.70;100517.00;5038544;28;45509;-73
2022/03/06 07:05:12;;;;;;;;;8.25;8.00;;;;;6.37;72.07;100466.72;5037829;28;46102;-74
2022/03/06 07:07:38;;;;;;;;;7.50;7.50;;;;;6.56;72.14;100502.16;5037781;28;45358;-73
2022/03/06 07:10:05;;;;;;;;;15.75;14.00;;;;;6.68;72.22;100512.22;5037789;28;45405;-73
2022/03/06 07:12:31;;;;;;;;;4.50;2.75;;;;;6.68;69.77;100507.91;5038113;28;45474;-73
2022/03/06 07:14:56;;;;;;;;;5.00;3.50;;;;;6.76;70.22;100518.63;5037585;28;45462;-73
2022/03/06 07:17:22;;;;;;;;;6.00;4.50;;;;;6.83;70.62;100522.41;5037698;28;45534;-73
2022/03/06 07:19:48;;;;;;;;;1.25;1.00;;;;;6.74;70.91;100492.63;5037952;28;45422;-73
2022/03/06 07:22:15;;;;;;;;;9.00;8.00;;;;;6.92;71.10;100528.91;5037862;28;45186;-73
2022/03/06 07:24:40;;;;;;;;;23.75;20.75;;;;;6.96;70.54;100525.63;5037348;28;45440;-73
2022/03/06 07:27:06;;;;;;;;;8.00;7.50;;;;;7.03;70.55;100529.34;5037331;28;45506;-73
2022/03/06 07:29:32;;;;;;;;;4.00;3.00;;;;;7.08;70.62;100519.16;5037403;28;45513;-73
2022/03/06 07:31:57;;;;;;;;;5.00;4.00;;;;;6.65;70.16;100437.69;5037582;28;45316;-74
2022/03/06 07:34:23;;;;;;;;;6.00;6.00;;;;;7.17;69.31;100522.16;5037694;28;45405;-73
2022/03/06 07:36:48;;;;;;;;;5.50;3.75;;;;;7.16;69.76;100515.19;5037784;28;45272;-73
2022/03/06 07:39:15;;;;;;;;;4.00;4.00;;;;;7.26;69.70;100525.16;5037359;28;45485;-73
2022/03/06 07:41:40;;;;;;;;;5.50;3.75;;;;;6.84;69.41;100441.94;5037520;28;45470;-73
2022/03/06 07:44:06;;;;;;;;;6.00;6.00;;;;;7.34;69.55;100517.69;5036923;28;46503;-73
2022/03/06 07:46:31;;;;;;;;;6.50;5.00;;;;;7.47;69.78;100532.09;5036935;28;45548;-73
2022/03/06 07:48:57;;;;;;;;;11.75;8.00;;;;;7.54;68.88;100532.41;5037199;28;45362;-74
2022/03/06 07:51:22;;;;;;;;;9.00;8.00;;;;;7.72;68.41;100540.09;5037447;28;45352;-74
2022/03/06 07:53:48;;;;;;;;;13.75;12.00;;;;;7.70;69.25;100526.16;5037263;28;45431;-73
2022/03/06 07:56:14;;;;;;;;;13.25;12.75;;;;;7.84;69.12;100518.00;5037104;28;45340;-73
2022/03/06 07:58:39;;;;;;;;;20.50;20.25;;;;;8.01;68.50;100536.91;5037038;28;45431;-73
2022/03/06 08:01:05;;;;;;;;;11.00;10.00;;;;;8.07;67.85;100535.41;5036595;28;45296;-73
2022/03/06 08:03:30;;;;;;;;;14.25;14.00;;;;;8.23;67.79;100546.44;5036919;28;46116;-73
2022/03/06 08:05:56;;;;;;;;;9.00;7.25;;;;;8.33;67.78;100540.75;5035512;28;45695;-73
2022/03/06 08:08:22;;;;;;;;;5.00;5.00;;;;;8.36;67.73;100544.38;5037452;28;45470;-71
2022/03/06 08:10:47;;;;;;;;;2.00;1.00;;;;;8.36;68.04;100543.50;5037395;28;45484;-71
2022/03/06 08:13:13;;;;;;;;;4.00;3.25;;;;;8.36;67.80;100544.38;5036825;28;46413;-71
2022/03/06 08:15:38;;;;;;;;;4.75;4.00;;;;;7.97;67.60;100463.03;5036843;28;45473;-71
2022/03/06 08:18:04;;;;;;;;;14.50;14.50;;;;;8.49;67.49;100540.56;5036936;28;45379;-71
2022/03/06 08:20:29;;;;;;;;;9.00;8.50;;;;;8.61;67.39;100544.47;5037017;28;45319;-71
2022/03/06 08:22:55;;;;;;;;;19.75;18.50;;;;;8.65;66.84;100539.41;5036456;28;45449;-74
2022/03/06 08:25:20;;;;;;;;;14.25;13.00;;;;;8.74;67.10;100537.16;5037131;28;45411;-73
2022/03/06 08:27:47;;;;;;;;;20.75;17.25;;;;;8.80;67.23;100527.81;5036567;28;45398;-73
2022/03/06 08:30:13;;;;;;;;;19.00;16.75;;;;;8.83;66.65;100520.97;5037078;28;45791;-73
2022/03/06 08:32:40;;;;;;;;;18.50;15.00;;;;;9.07;66.79;100540.94;5036262;28;45398;-73
2022/03/06 08:35:07;;;;;;;;;17.25;16.75;;;;;9.18;66.92;100531.78;5036599;28;45764;-74
2022/03/06 08:37:33;;;;;;;;;23.00;22.25;;;;;9.22;66.27;100509.34;5036360;28;45625;-73
2022/03/06 08:39:59;;;;;;;;;20.25;17.25;;;;;9.56;65.96;100538.31;5036601;28;45299;-73
2022/03/06 08:42:24;;;;;;;;;19.25;17.00;;;;;9.81;64.98;100548.69;5036492;28;45491;-73
2022/03/06 08:44:50;;;;;;;;;13.75;11.00;;;;;9.98;64.36;100539.69;5036786;28;45411;-73
2022/03/06 08:47:15;;;;;;;;;10.50;10.00;;;;;10.12;63.36;100524.47;5036459;28;45234;-72
2022/03/06 08:49:41;;;;;;;;;4.25;3.25;;;;;10.47;62.00;100551.72;5036528;28;45481;-72
2022/03/06 08:52:07;;;;;;;;;22.00;17.25;;;;;10.71;60.69;100550.66;5036003;28;45402;-72
2022/03/06 08:54:33;;;;;;;;;7.75;7.00;;;;;10.88;60.13;100535.47;5036384;28;45445;-72
2022/03/06 08:56:59;;;;;;;;;15.00;13.50;;;;;11.18;57.18;100539.78;5036218;28;45305;-72
2022/03/06 08:59:24;;;;;;;;;10.00;9.00;;;;;11.29;55.63;100526.16;5036499;28;45437;-73
2022/03/06 09:01:55;;;;;;;;;11.75;11.00;;;;;11.49;54.73;100513.59;5036151;28;45422;-72
2022/03/06 09:04:24;;;;;;;;;6.00;6.00;;;;;12.05;54.50;100546.41;5036480;28;45483;-72
2022/03/06 09:06:51;;;;;;;;;17.50;16.50;;;;;12.29;50.94;100530.38;5036133;28;45391;-72
2022/03/06 09:09:16;;;;;;;;;10.75;9.75;;;;;12.66;51.29;100536.44;5035990;28;45469;-73
2022/03/06 09:11:42;;;;;;;;;5.00;4.33;;;;;12.81;49.37;100534.16;5037093;28;46126;-72
2022/03/06 09:14:08;;;;;;;;;5.33;4.33;;;;;12.97;49.45;100521.31;5039377;28;45314;-72
2022/03/06 09:16:33;;;;;;;;;4.33;3.67;;;;;13.25;47.46;100531.50;5039567;28;45529;-72
2022/03/06 09:19:01;;;;;;;;;5.00;4.33;;;;;13.43;46.96;100523.13;5039629;28;45368;-72
2022/03/06 09:21:27;;;;;;;;;3.00;3.00;;;;;13.61;47.51;100527.81;5039248;28;45490;-72
2022/03/06 09:23:53;;;;;;;;;3.00;3.00;;;;;13.77;45.80;100528.06;5039343;28;45186;-72
2022/03/06 09:26:19;;;;;;;;;2.00;2.00;;;;;13.87;44.36;100522.13;5039153;28;45263;-72
2022/03/06 09:28:44;;;;;;;;;5.67;5.00;;;;;14.07;43.87;100531.19;5039146;28;45264;-73
2022/03/06 09:31:10;;;;;;;;;5.00;4.00;;;;;14.23;44.39;100534.06;5037891;28;46561;-73
2022/03/06 09:33:36;;;;;;;;;7.00;7.00;;;;;14.31;44.37;100529.78;5039197;28;45334;-73
2022/03/06 09:36:01;;;;;;;;;53.25;44.75;;;;;14.43;44.22;100531.72;5038752;28;45848;-72
2022/03/06 09:38:27;;;;;;;;;7.33;7.00;;;;;14.42;44.15;100527.31;5039398;28;45417;-73
2022/03/06 09:40:54;;;;;;;;;4.00;3.67;;;;;14.40;44.14;100522.00;5039241;28;45429;-72
2022/03/06 09:43:20;;;;;;;;;4.33;4.00;;;;;14.55;44.29;100525.75;5038930;28;45482;-72
2022/03/06 09:45:47;;;;;;;;;5.33;5.00;;;;;14.98;43.43;100539.44;5038775;28;45426;-72
2022/03/06 09:48:16;;;;;;;;;5.00;5.00;;;;;15.79;41.69;100521.00;5039245;28;45493;-72
2022/03/06 09:50:45;;;;;;;;;4.67;4.00;;;;;16.12;42.72;100540.59;5038673;28;45298;-73
2022/03/06 09:53:11;;;;;;;;;6.67;5.00;;;;;16.17;41.53;100528.31;5038707;28;45296;-73
2022/03/06 09:55:37;;;;;;;;;3.00;3.00;;;;;16.28;41.57;100519.59;5038821;28;45410;-72
2022/03/06 09:58:02;;;;;;;;;4.00;3.00;;;;;17.29;39.65;100508.59;5039174;28;45434;-73
2022/03/06 10:00:28;;;;;;;;;3.00;3.00;;;;;17.48;39.73;100524.47;5039082;28;46407;-73
2022/03/06 10:03:02;;;;;;;;;4.00;3.00;;;;;17.28;40.00;100517.38;5039038;28;45377;-72
2022/03/06 10:05:39;;;;;;;;;2.00;1.67;;;;;17.24;39.19;100523.53;5039157;28;45461;-73
2022/03/06 10:08:27;;;;;;;;;4.33;4.33;;;;;17.33;39.21;100527.06;5038795;28;45253;-73
2022/03/06 10:11:01;;;;;;;;;4.00;3.33;;;;;17.32;39.31;100520.06;5037987;28;46196;-73
2022/03/06 10:13:33;;;;;;;;;4.00;4.00;;;;;17.34;38.79;100529.72;5038520;28;45533;-75
2022/03/06 10:16:04;;;;;;;;;6.33;6.00;;;;;17.22;39.71;100525.31;5038904;28;45405;-74
2022/03/06 10:18:33;;;;;;;;;2.00;2.00;;;;;17.25;40.42;100530.59;5038728;28;45327;-74
2022/03/06 10:21:24;;;;;;;;;2.67;2.67;;;;;17.20;40.41;100532.34;5036944;28;45578;-74
2022/03/06 10:23:53;;;;;;;;;4.67;2.67;;;;;17.16;39.20;100512.09;5036211;28;45860;-74
2022/03/06 10:26:28;;;;;;;;;3.33;3.33;;;;;17.26;39.69;100519.16;5038259;28;45485;-74
2022/03/06 10:28:57;;;;;;;;;5.00;3.00;;;;;17.27;39.59;100528.84;5037012;28;45504;-74
2022/03/06 10:31:24;;;;;;;;;4.00;2.33;;;;;17.24;38.71;100518.25;5038040;28;45345;-74
2022/03/06 10:33:59;;;;;;;;;4.67;4.00;;;;;17.30;38.06;100502.44;5037951;28;45496;-73
2022/03/06 10:36:32;;;;;;;;;4.00;4.00;;;;;17.95;37.94;100523.66;5037910;28;45509;-73
2022/03/06 10:38:59;;;;;;;;;5.33;5.33;;;;;18.02;37.49;100504.25;5036991;28;45460;-72
2022/03/06 10:41:35;;;;;;;;;8.67;7.00;;;;;18.42;37.41;100506.84;5037660;28;45941;-73
2022/03/06 10:44:00;;;;;;;;;6.33;5.67;;;;;18.25;37.60;100516.56;5038305;28;45260;-73
2022/03/06 10:46:26;;;;;;;;;4.67;4.33;;;;;17.94;37.57;100518.34;5038195;28;45579;-73
2022/03/06 10:48:57;;;;;;;;;5.33;5.00;;;;;17.85;36.97;100517.47;5037808;28;45565;-73
2022/03/06 10:51:23;;;;;;;;;5.33;3.67;;;;;17.59;37.74;100517.44;5037531;28;45629;-72
2022/03/06 10:53:54;;;;;;;;;4.00;4.00;;;;;16.81;37.18;100520.78;5036545;28;45534;-72
2022/03/06 10:56:20;;;;;;;;;10.33;10.33;;;;;16.25;38.07;100489.69;5037699;28;45368;-72
2022/03/06 10:58:47;;;;;;;;;7.67;7.00;;;;;16.33;38.41;100513.47;5037998;28;45562;-73
2022/03/06 11:01:13;;;;;;;;;9.33;9.33;;;;;16.39;38.94;100513.50;5037405;28;45504;-72
2022/03/06 11:03:39;;;;;;;;;5.67;5.33;;;;;16.58;38.82;100512.72;5037078;28;45409;-72
2022/03/06 11:06:09;;;;;;;;;7.67;7.67;;;;;16.43;38.28;100510.91;5037845;28;45527;-73
2022/03/06 11:08:37;;;;;;;;;7.67;6.00;;;;;16.39;37.61;100513.50;5037933;28;45537;-72
2022/03/06 11:11:08;;;;;;;;;8.00;8.00;;;;;16.41;38.79;100507.38;5036183;28;46120;-72
2022/03/06 11:13:34;;;;;;;;;5.00;4.33;;;;;16.44;38.25;100485.41;5035532;28;45441;-72
2022/03/06 11:16:01;;;;;;;;;6.00;5.00;;;;;16.61;38.06;100507.47;5037146;28;45427;-72
2022/03/06 11:18:28;;;;;;;;;7.00;7.00;;;;;16.62;39.39;100503.09;5037545;28;45537;-72
2022/03/06 11:20:55;;;;;;;;;5.67;5.00;;;;;16.40;38.04;100495.06;5037095;28;46053;-72
2022/03/06 11:23:31;;;;;;;;;6.00;5.33;;;;;16.60;37.91;100505.69;5037145;28;45367;-73
2022/03/06 11:26:03;;;;;;;;;5.33;5.33;;;;;16.46;38.01;100510.91;5036808;28;45430;-73